sensor_id;sensor_type;location;lat;lon;timestamp;pressure;altitude;pressure_sealevel;temperature;humidity
16030;BME280;34770;49.272;11.070;2023-02-01T00:01:48;98096.13;;;1.23;100.00
16030;BME280;34770;49.272;11.070;2023-02-01T00:04:13;98166.53;;;1.67;100.00
16030;BME280;34770;49.272;11.070;2023-02-01T00:06:39;98174.13;;;1.75;100.00
16030;BME280;34770;49.272;11.070;2023-02-01T00:09:04;98140.56;;;1.54;100.00
16030;BME280;34770;49.272;11.070;2023-02-01T00:11:30;98177.09;;;1.84;100.00
16030;BME280;34770;49.272;11.070;2023-02-01T00:13:56;98151.69;;;1.68;100.00
16030;BME280;34770;49.272;11.070;2023-02-01T00:16:24;98114.81;;;1.50;100.00
16030;BME280;34770;49.272;11.070;2023-02-01T00:18:55;98154.34;;;1.79;100.00
16030;BME280;34770;49.272;11.070;2023-02-01T00:21:21;98152.47;;;1.74;100.00
16030;BME280;34770;49.272;11.070;2023-02-01T00:23:47;98146.69;;;1.75;100.00
16030;BME280;34770;49.272;11.070;2023-02-01T00:26:18;98164.13;;;1.90;100.00
16030;BME280;34770;49.272;11.070;2023-02-01T00:28:44;98156.72;;;1.90;100.00
16030;BME280;34770;49.272;11.070;2023-02-01T00:31:10;98118.34;;;1.56;100.00
16030;BME280;34770;49.272;11.070;2023-02-01T00:33:35;98104.91;;;1.54;100.00
16030;BME280;34770;49.272;11.070;2023-02-01T00:36:03;98172.06;;;1.91;100.00
16030;BME280;34770;49.272;11.070;2023-02-01T00:38:30;98164.91;;;1.96;100.00
16030;BME280;34770;49.272;11.070;2023-02-01T00:41:02;98104.00;;;1.64;100.00
16030;BME280;34770;49.272;11.070;2023-02-01T00:43:28;98104.56;;;1.61;100.00
16030;BME280;34770;49.272;11.070;2023-02-01T00:45:55;98151.50;;;1.89;100.00
16030;BME280;34770;49.272;11.070;2023-02-01T00:48:20;98147.13;;;1.88;100.00
16030;BME280;34770;49.272;11.070;2023-02-01T00:50:45;98161.81;;;2.02;100.00
16030;BME280;34770;49.272;11.070;2023-02-01T00:53:11;98164.84;;;2.01;100.00
16030;BME280;34770;49.272;11.070;2023-02-01T00:55:36;98109.97;;;1.71;100.00
16030;BME280;34770;49.272;11.070;2023-02-01T00:58:02;98161.25;;;2.05;100.00
16030;BME280;34770;49.272;11.070;2023-02-01T01:00:28;98088.22;;;1.51;100.00
16030;BME280;34770;49.272;11.070;2023-02-01T01:02:54;98094.69;;;1.60;100.00
16030;BME280;34770;49.272;11.070;2023-02-01T01:05:20;98147.66;;;1.90;100.00
16030;BME280;34770;49.272;11.070;2023-02-01T01:07:45;98134.16;;;1.94;100.00
16030;BME280;34770;49.272;11.070;2023-02-01T01:10:10;98161.78;;;2.07;100.00
16030;BME280;34770;49.272;11.070;2023-02-01T01:12:36;98012.75;;;1.24;100.00
16030;BME280;34770;49.272;11.070;2023-02-01T01:15:02;98158.19;;;2.07;100.00
16030;BME280;34770;49.272;11.070;2023-02-01T01:17:28;98049.13;;;1.35;100.00
16030;BME280;34770;49.272;11.070;2023-02-01T01:19:53;98076.38;;;1.55;100.00
16030;BME280;34770;49.272;11.070;2023-02-01T01:22:19;98026.13;;;1.31;100.00
16030;BME280;34770;49.272;11.070;2023-02-01T01:24:45;98062.91;;;1.59;100.00
16030;BME280;34770;49.272;11.070;2023-02-01T01:27:11;98111.66;;;1.91;100.00
16030;BME280;34770;49.272;11.070;2023-02-01T01:29:37;98138.16;;;2.06;100.00
16030;BME280;34770;49.272;11.070;2023-02-01T01:32:03;98079.06;;;1.61;100.00
16030;BME280;34770;49.272;11.070;2023-02-01T01:34:29;98115.31;;;1.87;100.00
16030;BME280;34770;49.272;11.070;2023-02-01T01:36:55;98091.56;;;1.72;100.00
16030;BME280;34770;49.272;11.070;2023-02-01T01:39:21;98109.22;;;1.90;100.00
16030;BME280;34770;49.272;11.070;2023-02-01T01:41:46;98101.28;;;1.88;100.00
16030;BME280;34770;49.272;11.070;2023-02-01T01:47:15;98138.97;;;2.07;100.00
16030;BME280;34770;49.272;11.070;2023-02-01T01:49:41;98129.38;;;2.04;100.00
16030;BME280;34770;49.272;11.070;2023-02-01T01:52:08;98128.34;;;2.00;100.00
16030;BME280;34770;49.272;11.070;2023-02-01T01:54:43;98122.31;;;1.98;100.00
16030;BME280;34770;49.272;11.070;2023-02-01T01:57:24;98130.91;;;2.16;100.00
16030;BME280;34770;49.272;11.070;2023-02-01T01:59:57;98117.78;;;2.13;100.00
16030;BME280;34770;49.272;11.070;2023-02-01T02:02:25;98130.03;;;2.20;100.00
16030;BME280;34770;49.272;11.070;2023-02-01T02:04:51;98120.22;;;2.14;100.00
16030;BME280;34770;49.272;11.070;2023-02-01T02:07:20;98120.91;;;2.25;100.00
16030;BME280;34770;49.272;11.070;2023-02-01T02:09:47;98111.09;;;2.19;100.00
16030;BME280;34770;49.272;11.070;2023-02-01T02:12:13;98111.34;;;2.22;100.00
16030;BME280;34770;49.272;11.070;2023-02-01T02:14:38;98113.16;;;2.32;100.00
16030;BME280;34770;49.272;11.070;2023-02-01T02:19:41;98108.75;;;2.31;100.00
16030;BME280;34770;49.272;11.070;2023-02-01T02:25:22;98110.41;;;2.32;100.00
16030;BME280;34770;49.272;11.070;2023-02-01T02:39:02;98099.22;;;2.48;100.00
16030;BME280;34770;49.272;11.070;2023-02-01T02:42:06;98093.44;;;2.49;100.00
16030;BME280;34770;49.272;11.070;2023-02-01T02:45:44;98101.38;;;2.51;100.00
16030;BME280;34770;49.272;11.070;2023-02-01T02:50:59;98090.91;;;2.53;100.00
16030;BME280;34770;49.272;11.070;2023-02-01T02:56:44;98093.19;;;2.46;100.00
16030;BME280;34770;49.272;11.070;2023-02-01T02:59:28;98096.47;;;2.48;100.00
16030;BME280;34770;49.272;11.070;2023-02-01T03:02:14;98096.47;;;2.48;100.00
16030;BME280;34770;49.272;11.070;2023-02-01T03:05:03;98085.34;;;2.39;100.00
16030;BME280;34770;49.272;11.070;2023-02-01T03:10:17;98084.16;;;2.45;100.00
16030;BME280;34770;49.272;11.070;2023-02-01T03:12:47;98056.34;;;2.28;100.00
16030;BME280;34770;49.272;11.070;2023-02-01T03:15:35;98080.81;;;2.48;100.00
16030;BME280;34770;49.272;11.070;2023-02-01T03:18:04;98072.28;;;2.50;100.00
16030;BME280;34770;49.272;11.070;2023-02-01T03:20:32;98065.16;;;2.49;100.00
16030;BME280;34770;49.272;11.070;2023-02-01T03:22:59;98047.59;;;2.45;100.00
16030;BME280;34770;49.272;11.070;2023-02-01T03:25:30;98056.81;;;2.54;100.00
16030;BME280;34770;49.272;11.070;2023-02-01T03:28:01;98049.69;;;2.53;100.00
16030;BME280;34770;49.272;11.070;2023-02-01T03:30:39;98039.75;;;2.57;100.00
16030;BME280;34770;49.272;11.070;2023-02-01T03:33:11;98023.84;;;2.54;100.00
16030;BME280;34770;49.272;11.070;2023-02-01T03:38:35;98028.31;;;2.50;100.00
16030;BME280;34770;49.272;11.070;2023-02-01T03:46:24;98059.22;;;2.61;100.00
16030;BME280;34770;49.272;11.070;2023-02-01T03:48:55;98040.78;;;2.61;100.00
16030;BME280;34770;49.272;11.070;2023-02-01T03:51:22;98038.69;;;2.53;100.00
16030;BME280;34770;49.272;11.070;2023-02-01T03:53:49;98054.59;;;2.56;100.00
16030;BME280;34770;49.272;11.070;2023-02-01T03:56:17;98043.09;;;2.54;100.00
16030;BME280;34770;49.272;11.070;2023-02-01T03:58:43;98058.31;;;2.65;100.00
16030;BME280;34770;49.272;11.070;2023-02-01T04:01:24;98044.56;;;2.65;100.00
16030;BME280;34770;49.272;11.070;2023-02-01T04:03:49;98022.66;;;2.60;100.00
16030;BME280;34770;49.272;11.070;2023-02-01T04:06:16;98030.25;;;2.68;100.00
16030;BME280;34770;49.272;11.070;2023-02-01T04:08:42;98032.38;;;2.71;100.00
16030;BME280;34770;49.272;11.070;2023-02-01T04:11:07;98021.47;;;2.66;100.00
16030;BME280;34770;49.272;11.070;2023-02-01T04:13:33;98034.91;;;2.68;100.00
16030;BME280;34770;49.272;11.070;2023-02-01T04:15:58;98026.88;;;2.71;100.00
16030;BME280;34770;49.272;11.070;2023-02-01T04:18:24;98033.28;;;2.67;100.00
16030;BME280;34770;49.272;11.070;2023-02-01T04:20:49;98016.59;;;2.63;100.00
16030;BME280;34770;49.272;11.070;2023-02-01T04:23:15;98019.16;;;2.74;100.00
16030;BME280;34770;49.272;11.070;2023-02-01T04:25:41;98022.00;;;2.68;100.00
16030;BME280;34770;49.272;11.070;2023-02-01T04:28:06;98025.72;;;2.78;100.00
16030;BME280;34770;49.272;11.070;2023-02-01T04:30:32;98015.66;;;2.68;100.00
16030;BME280;34770;49.272;11.070;2023-02-01T04:32:58;98008.84;;;2.65;100.00
16030;BME280;34770;49.272;11.070;2023-02-01T04:35:23;98010.03;;;2.78;100.00
16030;BME280;34770;49.272;11.070;2023-02-01T04:37:49;98011.75;;;2.74;100.00
16030;BME280;34770;49.272;11.070;2023-02-01T04:40:14;98013.34;;;2.75;100.00
16030;BME280;34770;49.272;11.070;2023-02-01T04:42:40;98006.31;;;2.69;100.00
16030;BME280;34770;49.272;11.070;2023-02-01T04:45:06;98009.06;;;2.69;100.00
16030;BME280;34770;49.272;11.070;2023-02-01T04:47:31;98008.16;;;2.74;100.00
16030;BME280;34770;49.272;11.070;2023-02-01T04:49:57;98001.44;;;2.66;100.00
16030;BME280;34770;49.272;11.070;2023-02-01T04:52:22;97997.69;;;2.76;100.00
16030;BME280;34770;49.272;11.070;2023-02-01T04:54:47;97998.22;;;2.78;100.00
16030;BME280;34770;49.272;11.070;2023-02-01T04:57:13;97988.84;;;2.79;100.00
16030;BME280;34770;49.272;11.070;2023-02-01T04:59:40;97992.13;;;2.81;100.00
16030;BME280;34770;49.272;11.070;2023-02-01T05:02:05;97980.59;;;2.79;100.00
16030;BME280;34770;49.272;11.070;2023-02-01T05:04:31;97995.47;;;2.78;100.00
16030;BME280;34770;49.272;11.070;2023-02-01T05:06:56;97988.41;;;2.71;100.00
16030;BME280;34770;49.272;11.070;2023-02-01T05:09:22;97984.25;;;2.74;100.00
16030;BME280;34770;49.272;11.070;2023-02-01T05:11:47;97977.63;;;2.75;100.00
16030;BME280;34770;49.272;11.070;2023-02-01T05:14:31;97970.88;;;2.67;100.00
16030;BME280;34770;49.272;11.070;2023-02-01T05:16:56;97977.13;;;2.73;100.00
16030;BME280;34770;49.272;11.070;2023-02-01T05:19:22;97968.28;;;2.76;100.00
16030;BME280;34770;49.272;11.070;2023-02-01T05:21:47;97978.97;;;2.78;100.00
16030;BME280;34770;49.272;11.070;2023-02-01T05:24:13;97963.25;;;2.64;100.00
16030;BME280;34770;49.272;11.070;2023-02-01T05:26:40;97970.53;;;2.74;100.00
16030;BME280;34770;49.272;11.070;2023-02-01T05:29:07;97954.41;;;2.67;100.00
16030;BME280;34770;49.272;11.070;2023-02-01T05:31:33;97969.59;;;2.79;100.00
16030;BME280;34770;49.272;11.070;2023-02-01T05:33:58;97968.88;;;2.73;100.00
16030;BME280;34770;49.272;11.070;2023-02-01T05:36:24;97966.34;;;2.77;100.00
16030;BME280;34770;49.272;11.070;2023-02-01T05:38:49;97953.38;;;2.63;100.00
16030;BME280;34770;49.272;11.070;2023-02-01T05:41:15;97975.31;;;2.82;100.00
16030;BME280;34770;49.272;11.070;2023-02-01T05:43:40;97978.97;;;2.78;100.00
16030;BME280;34770;49.272;11.070;2023-02-01T05:46:06;97972.88;;;2.81;100.00
16030;BME280;34770;49.272;11.070;2023-02-01T05:48:31;97969.81;;;2.82;100.00
16030;BME280;34770;49.272;11.070;2023-02-01T05:50:57;97982.06;;;2.90;100.00
16030;BME280;34770;49.272;11.070;2023-02-01T05:53:22;97960.25;;;2.80;100.00
16030;BME280;34770;49.272;11.070;2023-02-01T05:55:48;97981.56;;;2.88;100.00
16030;BME280;34770;49.272;11.070;2023-02-01T05:58:13;97977.91;;;2.93;100.00
16030;BME280;34770;49.272;11.070;2023-02-01T06:00:39;97988.91;;;2.93;100.00
16030;BME280;34770;49.272;11.070;2023-02-01T06:03:05;97989.94;;;2.97;100.00
16030;BME280;34770;49.272;11.070;2023-02-01T06:05:30;97981.47;;;2.93;100.00
16030;BME280;34770;49.272;11.070;2023-02-01T06:07:56;97973.22;;;2.93;100.00
16030;BME280;34770;49.272;11.070;2023-02-01T06:10:22;97969.75;;;2.87;100.00
16030;BME280;34770;49.272;11.070;2023-02-01T06:12:47;97975.94;;;2.79;100.00
16030;BME280;34770;49.272;11.070;2023-02-01T06:15:14;97979.19;;;2.81;100.00
16030;BME280;34770;49.272;11.070;2023-02-01T06:17:44;97982.75;;;2.82;100.00
16030;BME280;34770;49.272;11.070;2023-02-01T06:20:11;97967.56;;;2.70;100.00
16030;BME280;34770;49.272;11.070;2023-02-01T06:22:37;97982.84;;;2.77;100.00
16030;BME280;34770;49.272;11.070;2023-02-01T06:25:04;97999.69;;;2.89;100.00
16030;BME280;34770;49.272;11.070;2023-02-01T06:27:30;97995.91;;;2.85;100.00
16030;BME280;34770;49.272;11.070;2023-02-01T06:29:56;97995.91;;;2.85;100.00
16030;BME280;34770;49.272;11.070;2023-02-01T06:32:22;97996.06;;;2.75;100.00
16030;BME280;34770;49.272;11.070;2023-02-01T06:34:48;98003.19;;;2.76;100.00
16030;BME280;34770;49.272;11.070;2023-02-01T06:37:14;97990.56;;;2.75;100.00
16030;BME280;34770;49.272;11.070;2023-02-01T06:39:40;97986.84;;;2.65;100.00
16030;BME280;34770;49.272;11.070;2023-02-01T06:42:05;97978.03;;;2.68;100.00
16030;BME280;34770;49.272;11.070;2023-02-01T06:44:31;97985.25;;;2.64;100.00
16030;BME280;34770;49.272;11.070;2023-02-01T06:46:58;97979.31;;;2.57;100.00
16030;BME280;34770;49.272;11.070;2023-02-01T06:49:24;97975.94;;;2.60;100.00
16030;BME280;34770;49.272;11.070;2023-02-01T06:51:49;97990.22;;;2.62;100.00
16030;BME280;34770;49.272;11.070;2023-02-01T06:54:15;97983.59;;;2.63;100.00
16030;BME280;34770;49.272;11.070;2023-02-01T07:35:31;97907.66;;;2.15;100.00
16030;BME280;34770;49.272;11.070;2023-02-01T07:37:57;97931.75;;;2.37;100.00
16030;BME280;34770;49.272;11.070;2023-02-01T07:40:23;97932.59;;;2.38;100.00
16030;BME280;34770;49.272;11.070;2023-02-01T07:42:54;98001.41;;;2.85;100.00
16030;BME280;34770;49.272;11.070;2023-02-01T07:45:22;97913.50;;;2.28;100.00
16030;BME280;34770;49.272;11.070;2023-02-01T07:47:48;97903.88;;;2.11;100.00
16030;BME280;34770;49.272;11.070;2023-02-01T07:50:14;98014.84;;;2.86;100.00
16030;BME280;34770;49.272;11.070;2023-02-01T07:52:39;97922.63;;;2.23;100.00
16030;BME280;34770;49.272;11.070;2023-02-01T07:55:06;97939.66;;;2.25;100.00
16030;BME280;34770;49.272;11.070;2023-02-01T07:57:32;97929.28;;;2.22;100.00
16030;BME280;34770;49.272;11.070;2023-02-01T07:59:58;97954.78;;;2.42;100.00
16030;BME280;34770;49.272;11.070;2023-02-01T08:02:42;97952.78;;;2.47;100.00
16030;BME280;34770;49.272;11.070;2023-02-01T08:05:08;97928.13;;;2.42;100.00
16030;BME280;34770;49.272;11.070;2023-02-01T08:07:33;97918.66;;;2.34;100.00
16030;BME280;34770;49.272;11.070;2023-02-01T08:09:59;97895.69;;;2.25;100.00
16030;BME280;34770;49.272;11.070;2023-02-01T08:12:25;97975.25;;;2.87;100.00
16030;BME280;34770;49.272;11.070;2023-02-01T08:14:52;97874.69;;;2.15;100.00
16030;BME280;34770;49.272;11.070;2023-02-01T08:17:19;97938.09;;;2.57;100.00
16030;BME280;34770;49.272;11.070;2023-02-01T08:19:45;97940.84;;;2.57;100.00
16030;BME280;34770;49.272;11.070;2023-02-01T08:22:10;97914.63;;;2.46;100.00
16030;BME280;34770;49.272;11.070;2023-02-01T08:24:36;97993.75;;;3.15;100.00
16030;BME280;34770;49.272;11.070;2023-02-01T08:27:05;98002.53;;;3.17;100.00
16030;BME280;34770;49.272;11.070;2023-02-01T08:29:30;97996.72;;;3.18;100.00
16030;BME280;34770;49.272;11.070;2023-02-01T08:31:56;98005.81;;;3.19;100.00
16030;BME280;34770;49.272;11.070;2023-02-01T08:34:23;98004.16;;;3.18;100.00
16030;BME280;34770;49.272;11.070;2023-02-01T08:36:48;97994.28;;;3.17;100.00
16030;BME280;34770;49.272;11.070;2023-02-01T08:39:14;97992.06;;;3.19;100.00
16030;BME280;34770;49.272;11.070;2023-02-01T08:41:40;98001.75;;;3.44;100.00
16030;BME280;34770;49.272;11.070;2023-02-01T08:44:07;98006.25;;;3.40;100.00
16030;BME280;34770;49.272;11.070;2023-02-01T08:46:33;98004.72;;;3.48;100.00
16030;BME280;34770;49.272;11.070;2023-02-01T08:48:59;97993.22;;;3.46;100.00
16030;BME280;34770;49.272;11.070;2023-02-01T08:51:25;98023.19;;;3.47;100.00
16030;BME280;34770;49.272;11.070;2023-02-01T08:53:51;98009.63;;;3.37;100.00
16030;BME280;34770;49.272;11.070;2023-02-01T08:56:18;97994.00;;;3.32;100.00
16030;BME280;34770;49.272;11.070;2023-02-01T08:58:44;97999.50;;;3.32;100.00
16030;BME280;34770;49.272;11.070;2023-02-01T09:01:14;97999.09;;;3.39;100.00
16030;BME280;34770;49.272;11.070;2023-02-01T09:03:40;97995.66;;;3.33;100.00
16030;BME280;34770;49.272;11.070;2023-02-01T09:06:08;98002.69;;;3.40;100.00
16030;BME280;34770;49.272;11.070;2023-02-01T09:08:38;98002.06;;;3.43;100.00
16030;BME280;34770;49.272;11.070;2023-02-01T09:11:06;98009.22;;;3.44;100.00
16030;BME280;34770;49.272;11.070;2023-02-01T09:13:32;97990.34;;;3.37;100.00
16030;BME280;34770;49.272;11.070;2023-02-01T09:15:59;98002.59;;;3.45;100.00
16030;BME280;34770;49.272;11.070;2023-02-01T09:18:25;97986.88;;;3.45;100.00
16030;BME280;34770;49.272;11.070;2023-02-01T09:20:50;97992.38;;;3.45;100.00
16030;BME280;34770;49.272;11.070;2023-02-01T09:23:16;97993.22;;;3.46;100.00
16030;BME280;34770;49.272;11.070;2023-02-01T09:25:41;97982.31;;;3.41;100.00
16030;BME280;34770;49.272;11.070;2023-02-01T09:28:07;98033.59;;;3.64;100.00
16030;BME280;34770;49.272;11.070;2023-02-01T09:30:35;98033.50;;;3.70;100.00
16030;BME280;34770;49.272;11.070;2023-02-01T09:33:01;98024.44;;;3.69;100.00
16030;BME280;34770;49.272;11.070;2023-02-01T09:35:26;98030.56;;;3.80;100.00
16030;BME280;34770;49.272;11.070;2023-02-01T09:37:52;98047.50;;;3.87;100.00
16030;BME280;34770;49.272;11.070;2023-02-01T09:40:18;98005.28;;;3.78;100.00
16030;BME280;34770;49.272;11.070;2023-02-01T09:45:43;98044.03;;;3.95;100.00
16030;BME280;34770;49.272;11.070;2023-02-01T09:48:16;98057.72;;;4.01;100.00
16030;BME280;34770;49.272;11.070;2023-02-01T09:50:52;98077.19;;;4.04;100.00
16030;BME280;34770;49.272;11.070;2023-02-01T09:55:58;98082.09;;;4.07;100.00
16030;BME280;34770;49.272;11.070;2023-02-01T09:58:38;98083.81;;;4.03;100.00
16030;BME280;34770;49.272;11.070;2023-02-01T10:01:28;98091.47;;;3.92;100.00
16030;BME280;34770;49.272;11.070;2023-02-01T10:04:07;98102.94;;;4.13;100.00
16030;BME280;34770;49.272;11.070;2023-02-01T10:06:44;98090.75;;;4.42;100.00
16030;BME280;34770;49.272;11.070;2023-02-01T10:23:03;98124.59;;;4.85;97.47
16030;BME280;34770;49.272;11.070;2023-02-01T10:25:36;98120.66;;;4.77;97.72
16030;BME280;34770;49.272;11.070;2023-02-01T10:28:03;98125.84;;;4.78;100.00
16030;BME280;34770;49.272;11.070;2023-02-01T10:30:43;98123.59;;;4.67;97.55
16030;BME280;34770;49.272;11.070;2023-02-01T10:33:22;98121.25;;;4.74;96.84
16030;BME280;34770;49.272;11.070;2023-02-01T10:35:54;98123.91;;;4.79;98.10
16030;BME280;34770;49.272;11.070;2023-02-01T10:38:30;98098.25;;;4.78;97.13
16030;BME280;34770;49.272;11.070;2023-02-01T10:41:01;98122.56;;;4.90;98.99
16030;BME280;34770;49.272;11.070;2023-02-01T10:43:28;98122.88;;;4.75;97.82
16030;BME280;34770;49.272;11.070;2023-02-01T10:45:54;98100.53;;;4.62;98.16
16030;BME280;34770;49.272;11.070;2023-02-01T10:48:19;98082.38;;;4.61;98.27
16030;BME280;34770;49.272;11.070;2023-02-01T10:50:58;98127.91;;;4.59;97.22
16030;BME280;34770;49.272;11.070;2023-02-01T10:53:44;98102.50;;;4.48;99.70
16030;BME280;34770;49.272;11.070;2023-02-01T10:56:12;98097.50;;;4.36;100.00
16030;BME280;34770;49.272;11.070;2023-02-01T10:58:45;98114.53;;;4.52;99.10
16030;BME280;34770;49.272;11.070;2023-02-01T11:01:28;98112.19;;;4.59;99.01
16030;BME280;34770;49.272;11.070;2023-02-01T11:03:57;98098.50;;;4.68;97.67
16030;BME280;34770;49.272;11.070;2023-02-01T11:06:27;98108.72;;;5.04;97.91
16030;BME280;34770;49.272;11.070;2023-02-01T11:08:56;98095.13;;;5.08;94.85
16030;BME280;34770;49.272;11.070;2023-02-01T11:11:22;98083.47;;;5.11;92.71
16030;BME280;34770;49.272;11.070;2023-02-01T11:14:04;98082.47;;;5.07;91.21
16030;BME280;34770;49.272;11.070;2023-02-01T11:16:37;98095.50;;;5.15;90.68
16030;BME280;34770;49.272;11.070;2023-02-01T11:19:04;98091.00;;;5.19;88.81
16030;BME280;34770;49.272;11.070;2023-02-01T11:21:31;98064.53;;;5.18;86.57
16030;BME280;34770;49.272;11.070;2023-02-01T11:24:03;98071.19;;;5.17;87.07
16030;BME280;34770;49.272;11.070;2023-02-01T11:26:30;98068.34;;;5.08;90.63
16030;BME280;34770;49.272;11.070;2023-02-01T11:29:10;98044.34;;;4.86;91.11
16030;BME280;34770;49.272;11.070;2023-02-01T11:31:37;98064.03;;;4.93;91.62
16030;BME280;34770;49.272;11.070;2023-02-01T11:34:11;98055.78;;;4.79;93.50
16030;BME280;34770;49.272;11.070;2023-02-01T11:36:39;98038.63;;;4.83;93.79
16030;BME280;34770;49.272;11.070;2023-02-01T11:41:54;98027.78;;;4.86;93.78
16030;BME280;34770;49.272;11.070;2023-02-01T11:44:26;98012.25;;;5.13;94.89
16030;BME280;34770;49.272;11.070;2023-02-01T11:46:55;98029.31;;;5.47;92.06
16030;BME280;34770;49.272;11.070;2023-02-01T11:49:23;98021.59;;;5.57;90.73
16030;BME280;34770;49.272;11.070;2023-02-01T11:52:11;98047.28;;;5.58;92.69
16030;BME280;34770;49.272;11.070;2023-02-01T12:06:07;98039.69;;;4.73;100.00
16030;BME280;34770;49.272;11.070;2023-02-01T12:14:05;98044.09;;;4.60;100.00
16030;BME280;34770;49.272;11.070;2023-02-01T12:33:36;98026.88;;;4.26;100.00
16030;BME280;34770;49.272;11.070;2023-02-01T12:36:16;98026.75;;;4.31;100.00
16030;BME280;34770;49.272;11.070;2023-02-01T12:44:27;98026.69;;;4.37;100.00
16030;BME280;34770;49.272;11.070;2023-02-01T12:47:00;98012.69;;;4.33;100.00
16030;BME280;34770;49.272;11.070;2023-02-01T12:52:12;98023.81;;;4.42;100.00
16030;BME280;34770;49.272;11.070;2023-02-01T12:54:58;98017.69;;;4.31;100.00
16030;BME280;34770;49.272;11.070;2023-02-01T12:57:27;98014.66;;;4.19;100.00
16030;BME280;34770;49.272;11.070;2023-02-01T13:00:13;98010.16;;;4.23;100.00
16030;BME280;34770;49.272;11.070;2023-02-01T13:03:06;98008.22;;;4.23;100.00
16030;BME280;34770;49.272;11.070;2023-02-01T13:08:10;97984.91;;;4.43;100.00
16030;BME280;34770;49.272;11.070;2023-02-01T13:10:42;97966.66;;;4.34;100.00
16030;BME280;34770;49.272;11.070;2023-02-01T13:13:22;97992.50;;;4.60;100.00
16030;BME280;34770;49.272;11.070;2023-02-01T13:16:11;97988.25;;;4.54;100.00
16030;BME280;34770;49.272;11.070;2023-02-01T13:18:43;97994.25;;;4.56;100.00
16030;BME280;34770;49.272;11.070;2023-02-01T13:21:31;97992.25;;;4.48;100.00
16030;BME280;34770;49.272;11.070;2023-02-01T13:23:58;97990.13;;;4.45;100.00
16030;BME280;34770;49.272;11.070;2023-02-01T13:26:24;97986.97;;;4.38;99.98
16030;BME280;34770;49.272;11.070;2023-02-01T13:28:53;97989.09;;;4.41;98.39
16030;BME280;34770;49.272;11.070;2023-02-01T13:34:22;97983.44;;;4.23;100.00
16030;BME280;34770;49.272;11.070;2023-02-01T13:42:40;97988.75;;;4.20;100.00
16030;BME280;34770;49.272;11.070;2023-02-01T13:45:16;98017.56;;;4.36;100.00
16030;BME280;34770;49.272;11.070;2023-02-01T13:47:45;97989.53;;;4.20;100.00
16030;BME280;34770;49.272;11.070;2023-02-01T13:50:30;97996.50;;;4.18;100.00
16030;BME280;34770;49.272;11.070;2023-02-01T13:55:41;97997.19;;;4.23;100.00
16030;BME280;34770;49.272;11.070;2023-02-01T13:58:19;97997.50;;;4.22;100.00
16030;BME280;34770;49.272;11.070;2023-02-01T14:00:46;97963.44;;;4.04;100.00
16030;BME280;34770;49.272;11.070;2023-02-01T14:03:15;97988.09;;;4.23;100.00
16030;BME280;34770;49.272;11.070;2023-02-01T14:08:12;97981.16;;;4.25;99.42
16030;BME280;34770;49.272;11.070;2023-02-01T14:10:48;97980.75;;;4.18;99.71
16030;BME280;34770;49.272;11.070;2023-02-01T14:21:48;97997.09;;;4.28;98.09
16030;BME280;34770;49.272;11.070;2023-02-01T14:24:24;97989.84;;;4.19;97.97
16030;BME280;34770;49.272;11.070;2023-02-01T14:26:51;97979.97;;;4.18;98.99
16030;BME280;34770;49.272;11.070;2023-02-01T14:29:40;97984.03;;;4.20;99.40
16030;BME280;34770;49.272;11.070;2023-02-01T14:32:14;97995.88;;;4.21;100.00
16030;BME280;34770;49.272;11.070;2023-02-01T14:40:00;98013.66;;;4.01;100.00
16030;BME280;34770;49.272;11.070;2023-02-01T14:42:53;98007.53;;;3.90;100.00
16030;BME280;34770;49.272;11.070;2023-02-01T14:50:34;97998.47;;;3.89;100.00
16030;BME280;34770;49.272;11.070;2023-02-01T14:58:15;97964.41;;;3.71;100.00
16030;BME280;34770;49.272;11.070;2023-02-01T15:04:04;97995.47;;;3.99;100.00
16030;BME280;34770;49.272;11.070;2023-02-01T15:06:42;97987.72;;;4.02;100.00
16030;BME280;34770;49.272;11.070;2023-02-01T15:09:15;97990.97;;;4.04;100.00
16030;BME280;34770;49.272;11.070;2023-02-01T15:14:26;97991.69;;;4.09;98.25
16030;BME280;34770;49.272;11.070;2023-02-01T15:16:52;97973.03;;;4.06;98.42
16030;BME280;34770;49.272;11.070;2023-02-01T15:19:23;97984.94;;;4.15;96.31
16030;BME280;34770;49.272;11.070;2023-02-01T15:21:51;97977.31;;;4.12;96.93
16030;BME280;34770;49.272;11.070;2023-02-01T15:24:25;97973.72;;;4.12;96.59
16030;BME280;34770;49.272;11.070;2023-02-01T15:26:52;97961.19;;;4.06;95.87
16030;BME280;34770;49.272;11.070;2023-02-01T15:29:20;97969.34;;;4.11;96.74
16030;BME280;34770;49.272;11.070;2023-02-01T15:31:49;97947.22;;;4.02;97.01
16030;BME280;34770;49.272;11.070;2023-02-01T15:34:14;97962.94;;;4.02;96.75
16030;BME280;34770;49.272;11.070;2023-02-01T15:36:41;97969.84;;;4.13;96.50
16030;BME280;34770;49.272;11.070;2023-02-01T15:39:24;97950.88;;;4.11;96.32
16030;BME280;34770;49.272;11.070;2023-02-01T15:41:59;97953.44;;;4.08;93.61
16030;BME280;34770;49.272;11.070;2023-02-01T15:46:56;97966.59;;;4.11;95.03
16030;BME280;34770;49.272;11.070;2023-02-01T15:49:31;97956.72;;;4.10;95.36
16030;BME280;34770;49.272;11.070;2023-02-01T15:51:59;97947.66;;;3.95;95.07
16030;BME280;34770;49.272;11.070;2023-02-01T15:54:28;97952.41;;;4.04;94.99
16030;BME280;34770;49.272;11.070;2023-02-01T15:56:59;97937.03;;;3.89;95.06
16030;BME280;34770;49.272;11.070;2023-02-01T15:59:33;97946.09;;;4.03;94.57
16030;BME280;34770;49.272;11.070;2023-02-01T16:02:02;97943.34;;;4.03;93.44
16030;BME280;34770;49.272;11.070;2023-02-01T16:04:29;97962.22;;;3.96;94.54
16030;BME280;34770;49.272;11.070;2023-02-01T16:07:03;97930.22;;;3.86;94.38
16030;BME280;34770;49.272;11.070;2023-02-01T16:09:40;97966.41;;;3.93;94.69
16030;BME280;34770;49.272;11.070;2023-02-01T16:12:26;97938.78;;;3.85;95.26
16030;BME280;34770;49.272;11.070;2023-02-01T16:14:53;97961.81;;;3.89;95.56